Estación de Monte Patria - Chilecito
Ultimos registro cada 15 minutos 62
| N° | Estación | Fecha / Hora | Temperatura | Humedad | Lluvia | Velocidad | Dirección | Radiación | Presion |
| 62 | Monte Patria - Chilecito | 05-05-2026 15:15 | 22,9 | 40,6 | 0 | 0 | 309 | 369,4 | 935,8 |
| 61 | Monte Patria - Chilecito | 05-05-2026 15:00 | 21,4 | 43,1 | 0 | 0 | 303 | 368,1 | 935,9 |
| 60 | Monte Patria - Chilecito | 05-05-2026 14:45 | 21,4 | 41,9 | 0 | 0 | 314 | 150,6 | 936 |
| 59 | Monte Patria - Chilecito | 05-05-2026 14:30 | 22 | 41,5 | 0 | 0 | 316 | 140,6 | 936,2 |
| 58 | Monte Patria - Chilecito | 05-05-2026 14:15 | 23,2 | 38,4 | 0 | 0 | 317 | 221,9 | 936,2 |
| 57 | Monte Patria - Chilecito | 05-05-2026 14:00 | 23,9 | 37,8 | 0 | 0,5 | 317 | 601,9 | 936 |
| 56 | Monte Patria - Chilecito | 05-05-2026 13:45 | 22,9 | 39,5 | 0 | 0 | 316 | 474,4 | 936,2 |
| 55 | Monte Patria - Chilecito | 05-05-2026 13:30 | 24 | 36,5 | 0 | 0,5 | 312 | 701,9 | 936,2 |
| 54 | Monte Patria - Chilecito | 05-05-2026 13:15 | 25,1 | 34,9 | 0 | 0,5 | 316 | 521,9 | 936,3 |
| 53 | Monte Patria - Chilecito | 05-05-2026 13:00 | 24,8 | 35,6 | 0 | 0,5 | 13 | 600,6 | 936,5 |
| 52 | Monte Patria - Chilecito | 05-05-2026 12:45 | 24,2 | 36,9 | 0 | 0 | 334 | 599,4 | 936,5 |
| 51 | Monte Patria - Chilecito | 05-05-2026 12:30 | 24,1 | 36,2 | 0 | 0 | 309 | 604,4 | 936,9 |
| 50 | Monte Patria - Chilecito | 05-05-2026 12:15 | 23,1 | 39,5 | 0 | 0,5 | 321 | 543,1 | 936,8 |
| 49 | Monte Patria - Chilecito | 05-05-2026 12:00 | 22,7 | 40,6 | 0 | 0,5 | 302 | 596,9 | 937 |
| 48 | Monte Patria - Chilecito | 05-05-2026 11:45 | 23,3 | 40,2 | 0 | 0 | 321 | 576,9 | 937,1 |
| 47 | Monte Patria - Chilecito | 05-05-2026 11:30 | 22,7 | 40,3 | 0 | 0 | 312 | 561,9 | 937,2 |
| 46 | Monte Patria - Chilecito | 05-05-2026 11:15 | 22,1 | 39,7 | 0 | 0 | 317 | 113,1 | 937,5 |
| 45 | Monte Patria - Chilecito | 05-05-2026 11:00 | 21,5 | 38,8 | 0 | 0 | 354 | 68,1 | 937,4 |
| 44 | Monte Patria - Chilecito | 05-05-2026 10:45 | 20,7 | 35,5 | 0 | 0 | 320 | 53,1 | 937,4 |
| 43 | Monte Patria - Chilecito | 05-05-2026 10:30 | 19,7 | 37,1 | 0 | 0 | 316 | 479,4 | 937,4 |
| 42 | Monte Patria - Chilecito | 05-05-2026 10:15 | 19,7 | 36,2 | 0 | 0 | 313 | 451,9 | 937,5 |
| 41 | Monte Patria - Chilecito | 05-05-2026 10:00 | 19,6 | 36,2 | 0 | 0 | 312 | 421,9 | 937,4 |
| 40 | Monte Patria - Chilecito | 05-05-2026 09:45 | 19 | 35,5 | 0 | 0 | 309 | 386,9 | 937,6 |
| 39 | Monte Patria - Chilecito | 05-05-2026 09:30 | 17,7 | 37,3 | 0 | 0 | 309 | 134,4 | 937,3 |
| 38 | Monte Patria - Chilecito | 05-05-2026 09:15 | 16,9 | 38,1 | 0 | 0 | 303 | 49,4 | 937,4 |
| 37 | Monte Patria - Chilecito | 05-05-2026 09:00 | 18,1 | 35,7 | 0 | 0 | 293 | 148,1 | 937,5 |
| 36 | Monte Patria - Chilecito | 05-05-2026 08:45 | 15,8 | 38,3 | 0 | 0 | 293 | 60,6 | 937,5 |
| 35 | Monte Patria - Chilecito | 05-05-2026 08:30 | 14,1 | 41,9 | 0 | 0 | 293 | 203,1 | 937,5 |
| 34 | Monte Patria - Chilecito | 05-05-2026 08:15 | 13,1 | 49 | 0 | 0 | 292 | 90,6 | 937,2 |
| 33 | Monte Patria - Chilecito | 05-05-2026 08:00 | 10,8 | 52,4 | 0 | 0 | 292 | 20,6 | 937 |
| 32 | Monte Patria - Chilecito | 05-05-2026 07:45 | 10,6 | 54,7 | 0 | 0 | 292 | 16,9 | 936,9 |
| 31 | Monte Patria - Chilecito | 05-05-2026 07:30 | 10,2 | 55,6 | 0 | 0 | 292 | 5,6 | 936,7 |
| 30 | Monte Patria - Chilecito | 05-05-2026 07:15 | 10,1 | 54,9 | 0 | 0 | 292 | 1,9 | 936,6 |
| 29 | Monte Patria - Chilecito | 05-05-2026 07:00 | 9,9 | 55,3 | 0 | 0 | 292 | 0,6 | 936,8 |
| 28 | Monte Patria - Chilecito | 05-05-2026 06:45 | 10,5 | 52,9 | 0 | 0 | 292 | 0,6 | 936,5 |
| 27 | Monte Patria - Chilecito | 05-05-2026 06:30 | 10,2 | 53,2 | 0 | 0 | 292 | 0,6 | 936,4 |
| 26 | Monte Patria - Chilecito | 05-05-2026 06:15 | 10,6 | 52,7 | 0 | 0 | 292 | 0,6 | 936,2 |
| 25 | Monte Patria - Chilecito | 05-05-2026 06:00 | 11,1 | 49,2 | 0 | 0 | 292 | 0,6 | 935,8 |
| 24 | Monte Patria - Chilecito | 05-05-2026 05:45 | 11,7 | 45,6 | 0 | 0 | 292 | 0,6 | 935,6 |
| 23 | Monte Patria - Chilecito | 05-05-2026 05:30 | 11,7 | 44,8 | 0 | 0 | 292 | 0,6 | 935,5 |
| 22 | Monte Patria - Chilecito | 05-05-2026 05:15 | 11,8 | 43,5 | 0 | 0 | 292 | 0,6 | 935,5 |
| 21 | Monte Patria - Chilecito | 05-05-2026 05:00 | 12,1 | 43,4 | 0 | 0 | 292 | 0,6 | 935,5 |
| 20 | Monte Patria - Chilecito | 05-05-2026 04:45 | 12,3 | 43,6 | 0 | 0 | 292 | 0,6 | 935 |
| 19 | Monte Patria - Chilecito | 05-05-2026 04:30 | 12,4 | 41,9 | 0 | 0 | 292 | 0,6 | 934,5 |
| 18 | Monte Patria - Chilecito | 05-05-2026 04:15 | 12,8 | 43,5 | 0 | 0 | 292 | 0,6 | 934,7 |
| 17 | Monte Patria - Chilecito | 05-05-2026 04:00 | 12,2 | 43,6 | 0 | 0 | 292 | 0,6 | 935 |
| 16 | Monte Patria - Chilecito | 05-05-2026 03:45 | 12,3 | 44,6 | 0 | 0 | 292 | 0,6 | 935,1 |
| 15 | Monte Patria - Chilecito | 05-05-2026 03:30 | 12,4 | 44,2 | 0 | 0 | 292 | 0,6 | 935,5 |
| 14 | Monte Patria - Chilecito | 05-05-2026 03:15 | 12,4 | 45,6 | 0 | 0 | 292 | 0,6 | 935,7 |
| 13 | Monte Patria - Chilecito | 05-05-2026 03:00 | 12,6 | 44,9 | 0 | 0 | 292 | 0,6 | 935,7 |
| 12 | Monte Patria - Chilecito | 05-05-2026 02:45 | 13 | 44 | 0 | 0 | 292 | 0,6 | 935,9 |
| 11 | Monte Patria - Chilecito | 05-05-2026 02:30 | 12,7 | 46,1 | 0 | 0 | 292 | 0,6 | 936,3 |
| 10 | Monte Patria - Chilecito | 05-05-2026 02:15 | 12,8 | 45,8 | 0 | 0 | 292 | 0,6 | 936,4 |
| 9 | Monte Patria - Chilecito | 05-05-2026 02:00 | 12,3 | 46,9 | 0 | 0 | 292 | 0,6 | 936,4 |
| 8 | Monte Patria - Chilecito | 05-05-2026 01:45 | 12,7 | 45,1 | 0 | 0 | 292 | 0,6 | 936,5 |
| 7 | Monte Patria - Chilecito | 05-05-2026 01:30 | 12,2 | 48,4 | 0 | 0 | 292 | 0,6 | 936,7 |
| 6 | Monte Patria - Chilecito | 05-05-2026 01:15 | 13 | 46,5 | 0 | 0 | 292 | 0,6 | 936,9 |
| 5 | Monte Patria - Chilecito | 05-05-2026 01:00 | 12,5 | 48,4 | 0 | 0 | 292 | 0,6 | 937,2 |
| 4 | Monte Patria - Chilecito | 05-05-2026 00:45 | 12,9 | 46,4 | 0 | 0 | 292 | 0,6 | 937,2 |
| 3 | Monte Patria - Chilecito | 05-05-2026 00:30 | 13,3 | 45,8 | 0 | 0 | 292 | 0,6 | 937,2 |
| 2 | Monte Patria - Chilecito | 05-05-2026 00:15 | 13,4 | 45,4 | 0 | 0 | 292 | 0,6 | 937,3 |
| 1 | Monte Patria - Chilecito | 05-05-2026 00:00 | 13,1 | 46 | 0 | 0 | 292 | 0,6 | 937,4 |